createdAt,value
2022-08-22T00:00:46.712Z,47.57
2022-08-22T00:02:49.565Z,43.38
2022-08-22T00:06:05.785Z,47.09
2022-08-22T00:11:16.802Z,48.19
2022-08-22T00:16:24.617Z,48.07
2022-08-22T00:21:31.090Z,47.36
2022-08-22T00:26:45.270Z,48.34
2022-08-22T00:31:51.937Z,47.44
2022-08-22T00:36:59.350Z,48.29
2022-08-22T00:42:29.507Z,49.07
2022-08-22T00:47:54.579Z,47.99
2022-08-22T00:53:16.134Z,49.02
2022-08-22T00:58:39.764Z,49.63
2022-08-22T01:04:14.202Z,49.11
2022-08-22T01:09:26.771Z,49.88
2022-08-22T01:14:40.254Z,49.04
2022-08-22T01:20:10.550Z,49.54
2022-08-22T01:25:34.564Z,50.25
2022-08-22T01:31:29.752Z,50.49
2022-08-22T01:37:17.093Z,51.42
2022-08-22T01:42:44.848Z,50.26
2022-08-22T01:47:54.329Z,50.53
2022-08-22T01:53:04.223Z,50.26
2022-08-22T01:58:16.845Z,50.39
2022-08-22T02:03:25.052Z,49.73
2022-08-22T02:08:43.258Z,49.91
2022-08-22T02:13:54.501Z,50.62
2022-08-22T02:19:10.810Z,50.90
2022-08-22T02:24:25.243Z,50.81
2022-08-22T02:29:33.914Z,51.23
2022-08-22T02:34:41.113Z,50.69
2022-08-22T02:39:51.805Z,51.95
2022-08-22T02:45:07.802Z,50.91
2022-08-22T02:50:19.011Z,52.43
2022-08-22T02:55:36.527Z,53.45
2022-08-22T03:00:47.171Z,52.17
2022-08-22T03:06:01.349Z,52.00
2022-08-22T03:11:15.226Z,51.75
2022-08-22T03:16:27.907Z,51.81
2022-08-22T03:21:35.879Z,51.95
2022-08-22T03:26:45.946Z,52.07
2022-08-22T03:32:13.435Z,52.49
2022-08-22T03:37:20.588Z,52.38
2022-08-22T03:43:05.767Z,52.92
2022-08-22T03:48:26.107Z,52.62
2022-08-22T03:53:54.891Z,51.80
2022-08-22T03:59:23.850Z,52.30
2022-08-22T04:04:48.195Z,53.06
2022-08-22T04:10:16.217Z,53.42
2022-08-22T04:15:33.522Z,51.76
2022-08-22T04:20:56.569Z,52.89
2022-08-22T04:26:08.257Z,52.34
2022-08-22T04:31:18.447Z,51.54
2022-08-22T04:36:27.674Z,52.44
2022-08-22T04:41:42.360Z,53.06
2022-08-22T04:46:48.295Z,52.04
2022-08-22T04:51:56.965Z,52.34
2022-08-22T04:57:12.155Z,52.13
2022-08-22T05:02:24.574Z,53.70
2022-08-22T05:07:36.236Z,51.80
2022-08-22T05:12:41.786Z,52.38
2022-08-22T05:17:46.898Z,53.72
2022-08-22T05:22:53.686Z,52.17
2022-08-22T05:28:08.350Z,52.78
2022-08-22T05:33:17.886Z,52.57
2022-08-22T05:38:25.008Z,52.38
2022-08-22T05:43:28.970Z,52.33
2022-08-22T05:48:38.281Z,52.39
2022-08-22T05:53:45.572Z,52.10
2022-08-22T05:58:53.051Z,52.00
2022-08-22T06:04:02.627Z,51.13
2022-08-22T06:09:09.895Z,50.49
2022-08-22T06:14:24.973Z,49.99
2022-08-22T06:19:28.962Z,49.58
2022-08-22T06:24:37.124Z,49.58
2022-08-22T06:29:46.561Z,47.97
2022-08-22T06:34:50.676Z,47.99
2022-08-22T06:39:56.180Z,47.08
2022-08-22T06:45:02.066Z,46.49
2022-08-22T06:50:13.537Z,46.49
2022-08-22T06:55:19.351Z,45.71
2022-08-22T07:00:23.524Z,45.10
2022-08-22T07:05:28.704Z,44.96
2022-08-22T07:10:33.615Z,44.96
2022-08-22T07:15:41.495Z,44.20
2022-08-22T07:20:49.417Z,43.06
2022-08-22T07:26:07.639Z,42.89
2022-08-22T07:31:16.596Z,42.28
2022-08-22T07:36:31.824Z,41.04
2022-08-22T07:41:44.267Z,41.18
2022-08-22T07:46:57.253Z,40.20
2022-08-22T07:52:04.807Z,39.77
2022-08-22T07:57:14.288Z,40.15
2022-08-22T08:02:19.710Z,38.72
2022-08-22T08:07:25.642Z,38.45
2022-08-22T08:12:33.006Z,37.64
2022-08-22T08:17:37.874Z,35.96
2022-08-22T08:22:43.598Z,36.25
2022-08-22T08:28:06.402Z,36.30
2022-08-22T08:33:25.808Z,36.33
2022-08-22T08:38:33.308Z,35.56
2022-08-22T08:43:44.949Z,34.45
2022-08-22T08:49:23.975Z,33.74
2022-08-22T08:54:43.982Z,33.45
2022-08-22T08:59:55.159Z,32.85
2022-08-22T09:05:55.991Z,32.82
2022-08-22T09:11:28.484Z,32.27
2022-08-22T09:16:50.065Z,31.85
2022-08-22T09:22:18.146Z,30.68
2022-08-22T09:27:31.302Z,29.26
2022-08-22T09:32:45.304Z,29.47
2022-08-22T09:38:00.629Z,29.82
2022-08-22T09:43:06.677Z,27.50
2022-08-22T09:48:30.679Z,27.95
2022-08-22T09:53:48.171Z,26.67
2022-08-22T09:59:01.375Z,26.67
2022-08-22T10:04:53.351Z,25.70
2022-08-22T10:10:05.554Z,25.65
2022-08-22T10:15:18.610Z,25.50
2022-08-22T10:20:28.170Z,23.57
2022-08-22T10:25:41.677Z,24.69
2022-08-22T10:30:57.207Z,23.03
2022-08-22T10:36:07.831Z,23.06
2022-08-22T10:41:26.798Z,22.61
2022-08-22T10:46:36.707Z,21.75
2022-08-22T10:51:47.430Z,22.12
2022-08-22T10:56:59.248Z,20.31
2022-08-22T11:02:15.205Z,21.23
2022-08-22T11:07:48.461Z,19.80
2022-08-22T11:13:05.778Z,20.97
2022-08-22T11:18:21.530Z,20.08
2022-08-22T11:23:37.450Z,20.00
2022-08-22T11:29:13.587Z,19.51
2022-08-22T11:34:26.547Z,19.08
2022-08-22T11:39:35.696Z,19.26
2022-08-22T11:44:50.942Z,18.47
2022-08-22T11:49:59.514Z,19.41
2022-08-22T11:55:11.357Z,19.25
2022-08-22T12:00:26.649Z,19.18
2022-08-22T12:05:33.577Z,19.12
2022-08-22T12:10:38.966Z,18.01
2022-08-22T12:15:49.034Z,18.24
2022-08-22T12:21:18.910Z,17.77
2022-08-22T12:26:31.135Z,18.10
2022-08-22T12:31:58.211Z,16.76
2022-08-22T12:37:09.350Z,16.48
2022-08-22T12:42:29.237Z,16.88
2022-08-22T12:47:46.051Z,18.27
2022-08-22T12:53:00.607Z,18.76
2022-08-22T12:58:11.532Z,18.17
2022-08-22T13:03:25.045Z,17.16
2022-08-22T13:08:30.855Z,16.08
2022-08-22T13:13:38.575Z,16.71
2022-08-22T13:18:53.714Z,17.30
2022-08-22T13:23:59.476Z,16.45
2022-08-22T13:29:24.693Z,16.29
2022-08-22T13:34:39.961Z,16.09
2022-08-22T13:39:49.184Z,16.43
2022-08-22T13:44:55.211Z,16.73
2022-08-22T13:50:08.229Z,16.60
2022-08-22T13:55:17.739Z,15.05
2022-08-22T14:01:06.923Z,15.04
2022-08-22T14:06:37.973Z,15.17
2022-08-22T14:11:45.311Z,15.59
2022-08-22T14:16:51.326Z,15.38
2022-08-22T14:21:59.183Z,16.35
2022-08-22T14:27:07.219Z,16.23
2022-08-22T14:32:35.064Z,15.52
2022-08-22T14:37:47.306Z,14.79
2022-08-22T14:42:55.516Z,14.97
2022-08-22T14:48:30.491Z,14.42
2022-08-22T14:53:30.504Z,16.10
2022-08-22T14:58:52.238Z,16.09
2022-08-22T15:04:00.922Z,14.38
2022-08-22T15:09:12.846Z,15.91
2022-08-22T15:14:24.218Z,15.59
2022-08-22T15:19:35.568Z,15.90
2022-08-22T15:24:44.595Z,15.06
2022-08-22T15:29:51.463Z,15.44
2022-08-22T15:34:55.283Z,15.47
2022-08-22T15:40:11.604Z,16.06
2022-08-22T15:45:21.438Z,14.75
2022-08-22T15:50:32.402Z,15.20
2022-08-22T15:55:38.061Z,15.64
2022-08-22T16:00:45.157Z,15.97
2022-08-22T16:05:55.379Z,16.54
2022-08-22T16:11:22.473Z,15.50
2022-08-22T16:16:54.178Z,15.94
2022-08-22T16:22:15.052Z,17.01
2022-08-22T16:27:22.401Z,16.49
2022-08-22T16:32:27.998Z,16.02
2022-08-22T16:37:55.558Z,16.29
2022-08-22T16:43:15.051Z,17.08
2022-08-22T16:48:35.459Z,16.85
2022-08-22T16:54:13.524Z,17.25
2022-08-22T16:59:38.276Z,17.82
2022-08-22T17:04:54.335Z,17.95
2022-08-22T17:10:20.426Z,17.96
2022-08-22T17:15:32.971Z,18.38
2022-08-22T17:20:50.793Z,19.16
2022-08-22T17:26:07.273Z,20.13
2022-08-22T17:31:16.970Z,19.94
2022-08-22T17:36:27.651Z,20.55
2022-08-22T17:41:40.022Z,20.69
2022-08-22T17:46:48.874Z,20.77
2022-08-22T17:51:58.569Z,21.11
2022-08-22T17:57:06.340Z,21.91
2022-08-22T18:02:16.364Z,21.83
2022-08-22T18:07:27.229Z,22.33
2022-08-22T18:12:34.495Z,22.62
2022-08-22T18:17:44.320Z,22.67
2022-08-22T18:22:54.125Z,23.16
2022-08-22T18:28:00.071Z,23.49
2022-08-22T18:33:09.283Z,24.19
2022-08-22T18:38:21.393Z,24.57
2022-08-22T18:43:37.075Z,24.57
2022-08-22T18:49:05.330Z,25.02
2022-08-22T18:54:36.594Z,25.97
2022-08-22T18:59:47.075Z,26.18
2022-08-22T19:05:28.687Z,26.59
2022-08-22T19:10:52.093Z,27.32
2022-08-22T19:16:07.315Z,27.58
2022-08-22T19:21:44.930Z,27.73
2022-08-22T19:26:51.327Z,28.44
2022-08-22T19:31:56.213Z,28.52
2022-08-22T19:37:32.049Z,28.71
2022-08-22T19:42:39.456Z,28.94
2022-08-22T19:47:43.943Z,29.13
2022-08-22T19:53:02.957Z,29.36
2022-08-22T19:58:16.541Z,29.75
2022-08-22T20:03:30.990Z,30.07
2022-08-22T20:08:47.964Z,30.56
2022-08-22T20:13:51.851Z,30.74
2022-08-22T20:19:07.009Z,30.71
2022-08-22T20:24:17.448Z,30.88
2022-08-22T20:29:21.912Z,31.07
2022-08-22T20:34:31.965Z,31.37
2022-08-22T20:39:43.756Z,31.36
2022-08-22T20:44:53.553Z,31.34
2022-08-22T20:50:03.145Z,31.63
2022-08-22T20:55:15.165Z,32.37
2022-08-22T21:00:21.064Z,32.35
2022-08-22T21:05:26.464Z,32.47
2022-08-22T21:10:50.675Z,32.39
2022-08-22T21:15:55.872Z,32.36
2022-08-22T21:21:08.113Z,32.86
2022-08-22T21:26:24.963Z,33.13
2022-08-22T21:31:31.238Z,32.77
2022-08-22T21:36:38.774Z,33.67
2022-08-22T21:41:49.225Z,33.66
2022-08-22T21:46:53.146Z,34.07
2022-08-22T21:51:57.319Z,34.01
2022-08-22T21:57:21.153Z,34.04
2022-08-22T22:02:37.156Z,34.29
2022-08-22T22:07:42.890Z,34.15
2022-08-22T22:12:51.234Z,34.18
2022-08-22T22:17:55.703Z,34.17
2022-08-22T22:22:59.620Z,34.14
2022-08-22T22:28:08.016Z,34.18
2022-08-22T22:33:11.891Z,35.38
2022-08-22T22:38:19.377Z,34.64
2022-08-22T22:43:26.858Z,34.81
2022-08-22T22:48:30.960Z,34.81
2022-08-22T22:53:40.140Z,34.81
2022-08-22T22:58:47.593Z,35.10
2022-08-22T23:03:54.589Z,35.30
2022-08-22T23:08:58.995Z,35.36
2022-08-22T23:14:03.963Z,36.45
2022-08-22T23:19:09.362Z,35.93
2022-08-22T23:24:13.034Z,35.60
2022-08-22T23:29:17.931Z,35.79
2022-08-22T23:34:23.628Z,36.07
2022-08-22T23:39:28.852Z,35.81
2022-08-22T23:44:35.470Z,36.46
2022-08-22T23:49:40.015Z,36.16
2022-08-22T23:54:43.547Z,36.37
2022-08-22T23:59:57.968Z,36.45
